sensor_id;sensor_type;location;lat;lon;timestamp;pressure;altitude;pressure_sealevel;temperature;humidity
72024;BME280;59889;50.700;5.440;2023-12-29T00:01:10;99565.18;;;20.36;35.19
72024;BME280;59889;50.700;5.440;2023-12-29T00:03:35;99557.18;;;20.35;35.20
72024;BME280;59889;50.700;5.440;2023-12-29T00:06:02;99560.18;;;20.44;35.09
72024;BME280;59889;50.700;5.440;2023-12-29T00:08:25;99556.01;;;20.65;35.12
72024;BME280;59889;50.700;5.440;2023-12-29T00:10:50;99544.32;;;20.12;35.16
72024;BME280;59889;50.700;5.440;2023-12-29T00:13:15;99544.85;;;20.48;35.30
72024;BME280;59889;50.700;5.440;2023-12-29T00:15:40;99542.72;;;20.34;35.20
72024;BME280;59889;50.700;5.440;2023-12-29T00:18:05;99537.08;;;20.24;35.33
72024;BME280;59889;50.700;5.440;2023-12-29T00:20:30;99541.15;;;20.33;35.20
72024;BME280;59889;50.700;5.440;2023-12-29T00:22:55;99540.29;;;20.21;35.07
72024;BME280;59889;50.700;5.440;2023-12-29T00:25:20;99549.53;;;20.35;35.22
72024;BME280;59889;50.700;5.440;2023-12-29T00:27:45;99554.06;;;20.34;35.18
72024;BME280;59889;50.700;5.440;2023-12-29T00:30:11;99549.42;;;20.34;35.20
72024;BME280;59889;50.700;5.440;2023-12-29T00:32:36;99544.30;;;20.47;35.05
72024;BME280;59889;50.700;5.440;2023-12-29T00:35:01;99543.74;;;20.11;35.20
72024;BME280;59889;50.700;5.440;2023-12-29T00:37:26;99545.40;;;20.05;35.27
72024;BME280;59889;50.700;5.440;2023-12-29T00:39:51;99539.25;;;20.43;35.10
72024;BME280;59889;50.700;5.440;2023-12-29T00:42:16;99539.60;;;20.22;35.35
72024;BME280;59889;50.700;5.440;2023-12-29T00:44:41;99547.98;;;20.40;35.14
72024;BME280;59889;50.700;5.440;2023-12-29T00:47:06;99542.24;;;20.42;35.11
72024;BME280;59889;50.700;5.440;2023-12-29T00:49:31;99538.05;;;20.09;35.24
72024;BME280;59889;50.700;5.440;2023-12-29T00:51:56;99544.91;;;20.33;35.22
72024;BME280;59889;50.700;5.440;2023-12-29T00:54:22;99542.01;;;20.67;35.14
72024;BME280;59889;50.700;5.440;2023-12-29T00:56:48;99542.76;;;20.52;35.29
72024;BME280;59889;50.700;5.440;2023-12-29T00:59:11;99547.36;;;20.42;35.13
72024;BME280;59889;50.700;5.440;2023-12-29T01:01:36;99542.14;;;20.44;35.11
72024;BME280;59889;50.700;5.440;2023-12-29T01:04:02;99537.69;;;20.08;35.22
72024;BME280;59889;50.700;5.440;2023-12-29T01:06:27;99529.46;;;20.63;35.15
72024;BME280;59889;50.700;5.440;2023-12-29T01:08:51;99528.94;;;20.53;35.25
72024;BME280;59889;50.700;5.440;2023-12-29T01:11:17;99525.03;;;20.44;35.11
72024;BME280;59889;50.700;5.440;2023-12-29T01:13:42;99517.67;;;20.67;35.09
72024;BME280;59889;50.700;5.440;2023-12-29T01:16:07;99514.82;;;20.03;35.30
72024;BME280;59889;50.700;5.440;2023-12-29T01:18:32;99511.61;;;20.18;35.11
72024;BME280;59889;50.700;5.440;2023-12-29T01:20:57;99506.62;;;20.30;35.27
72024;BME280;59889;50.700;5.440;2023-12-29T01:23:22;99507.57;;;20.21;35.09
72024;BME280;59889;50.700;5.440;2023-12-29T01:25:47;99506.59;;;20.11;35.21
72024;BME280;59889;50.700;5.440;2023-12-29T01:28:12;99502.75;;;20.34;35.22
72024;BME280;59889;50.700;5.440;2023-12-29T01:30:37;99506.48;;;20.51;35.33
72024;BME280;59889;50.700;5.440;2023-12-29T01:33:02;99502.51;;;20.01;35.36
72024;BME280;59889;50.700;5.440;2023-12-29T01:35:27;99502.70;;;20.20;35.40
72024;BME280;59889;50.700;5.440;2023-12-29T01:37:52;99500.79;;;20.23;35.36
72024;BME280;59889;50.700;5.440;2023-12-29T01:40:17;99503.36;;;20.49;35.07
72024;BME280;59889;50.700;5.440;2023-12-29T01:42:43;99504.66;;;20.57;35.26
72024;BME280;59889;50.700;5.440;2023-12-29T01:45:19;99498.30;;;20.37;35.19
72024;BME280;59889;50.700;5.440;2023-12-29T01:47:33;99502.14;;;20.38;35.19
72024;BME280;59889;50.700;5.440;2023-12-29T01:49:58;99502.80;;;20.49;35.05
72024;BME280;59889;50.700;5.440;2023-12-29T01:52:23;99510.90;;;20.37;35.20
72024;BME280;59889;50.700;5.440;2023-12-29T01:54:49;99513.97;;;20.11;35.24
72024;BME280;59889;50.700;5.440;2023-12-29T01:57:14;99514.71;;;20.27;35.37
72024;BME280;59889;50.700;5.440;2023-12-29T01:59:38;99516.08;;;20.42;35.13
72024;BME280;59889;50.700;5.440;2023-12-29T02:02:03;99518.59;;;20.08;35.27
72024;BME280;59889;50.700;5.440;2023-12-29T02:04:28;99518.18;;;20.71;35.11
72024;BME280;59889;50.700;5.440;2023-12-29T02:06:54;99517.64;;;20.33;35.26
72024;BME280;59889;50.700;5.440;2023-12-29T02:09:18;99519.56;;;20.10;35.24
72024;BME280;59889;50.700;5.440;2023-12-29T02:11:44;99514.76;;;20.63;35.18
72024;BME280;59889;50.700;5.440;2023-12-29T02:14:09;99511.31;;;20.40;35.18
72024;BME280;59889;50.700;5.440;2023-12-29T02:16:38;99516.88;;;20.60;35.22
72024;BME280;59889;50.700;5.440;2023-12-29T02:19:00;99512.58;;;20.59;35.25
72024;BME280;59889;50.700;5.440;2023-12-29T02:21:24;99504.51;;;20.34;35.23
72024;BME280;59889;50.700;5.440;2023-12-29T02:23:49;99499.06;;;20.02;35.37
72024;BME280;59889;50.700;5.440;2023-12-29T02:26:15;99498.31;;;20.50;35.08
72024;BME280;59889;50.700;5.440;2023-12-29T02:28:44;99492.82;;;19.96;35.43
72024;BME280;59889;50.700;5.440;2023-12-29T02:31:07;99490.87;;;20.30;35.32
72024;BME280;59889;50.700;5.440;2023-12-29T02:33:33;99495.78;;;20.42;35.19
72024;BME280;59889;50.700;5.440;2023-12-29T02:35:56;99497.35;;;20.77;35.05
72024;BME280;59889;50.700;5.440;2023-12-29T02:38:19;99493.26;;;20.17;35.18
72024;BME280;59889;50.700;5.440;2023-12-29T02:40:44;99497.45;;;20.60;35.23
72024;BME280;59889;50.700;5.440;2023-12-29T02:43:09;99491.55;;;20.40;35.19
72024;BME280;59889;50.700;5.440;2023-12-29T02:45:34;99492.45;;;20.13;35.56
72024;BME280;59889;50.700;5.440;2023-12-29T02:47:59;99483.96;;;20.26;35.37
72024;BME280;59889;50.700;5.440;2023-12-29T02:50:24;99488.03;;;20.27;35.38
72024;BME280;59889;50.700;5.440;2023-12-29T02:52:49;99482.80;;;20.23;35.44
72024;BME280;59889;50.700;5.440;2023-12-29T02:55:14;99479.23;;;19.92;35.52
72024;BME280;59889;50.700;5.440;2023-12-29T02:57:40;99476.26;;;20.10;35.58
72024;BME280;59889;50.700;5.440;2023-12-29T03:00:06;99475.41;;;20.00;35.41
72024;BME280;59889;50.700;5.440;2023-12-29T03:02:29;99465.67;;;20.36;35.56
72024;BME280;59889;50.700;5.440;2023-12-29T03:04:54;99460.29;;;20.33;35.60
72024;BME280;59889;50.700;5.440;2023-12-29T03:07:20;99452.35;;;20.08;35.32
72024;BME280;59889;50.700;5.440;2023-12-29T03:09:45;99450.55;;;20.61;35.24
72024;BME280;59889;50.700;5.440;2023-12-29T03:12:10;99448.61;;;20.03;35.38
72024;BME280;59889;50.700;5.440;2023-12-29T03:14:35;99448.96;;;20.13;35.54
72024;BME280;59889;50.700;5.440;2023-12-29T03:17:00;99443.27;;;20.46;35.41
72024;BME280;59889;50.700;5.440;2023-12-29T03:19:25;99441.37;;;20.31;35.33
72024;BME280;59889;50.700;5.440;2023-12-29T03:21:50;99437.61;;;20.01;35.41
72024;BME280;59889;50.700;5.440;2023-12-29T03:24:15;99439.31;;;20.10;35.30
72024;BME280;59889;50.700;5.440;2023-12-29T03:26:40;99445.37;;;20.51;35.38
72024;BME280;59889;50.700;5.440;2023-12-29T03:29:05;99441.30;;;20.36;35.27
72024;BME280;59889;50.700;5.440;2023-12-29T03:31:30;99445.21;;;20.25;35.40
72024;BME280;59889;50.700;5.440;2023-12-29T03:33:55;99450.10;;;20.30;35.35
72024;BME280;59889;50.700;5.440;2023-12-29T03:36:20;99466.15;;;20.46;35.46
72024;BME280;59889;50.700;5.440;2023-12-29T03:38:45;99473.50;;;20.53;35.37
72024;BME280;59889;50.700;5.440;2023-12-29T03:41:10;99479.65;;;20.11;35.29
72024;BME280;59889;50.700;5.440;2023-12-29T03:43:35;99484.12;;;20.47;35.44
72024;BME280;59889;50.700;5.440;2023-12-29T03:46:00;99485.74;;;20.10;35.31
72024;BME280;59889;50.700;5.440;2023-12-29T03:48:26;99479.23;;;20.03;35.37
72024;BME280;59889;50.700;5.440;2023-12-29T03:50:51;99482.18;;;20.16;35.22
72024;BME280;59889;50.700;5.440;2023-12-29T03:53:16;99484.80;;;20.40;35.22
72024;BME280;59889;50.700;5.440;2023-12-29T03:55:41;99481.08;;;20.40;35.20
72024;BME280;59889;50.700;5.440;2023-12-29T03:58:06;99482.75;;;20.36;35.27
72024;BME280;59889;50.700;5.440;2023-12-29T04:00:31;99483.70;;;20.13;35.26
72024;BME280;59889;50.700;5.440;2023-12-29T04:02:56;99476.07;;;20.38;35.24
72024;BME280;59889;50.700;5.440;2023-12-29T04:05:21;99463.35;;;20.23;35.41
72024;BME280;59889;50.700;5.440;2023-12-29T04:07:46;99465.98;;;20.52;35.35
72024;BME280;59889;50.700;5.440;2023-12-29T04:10:11;99458.82;;;20.00;35.42
72024;BME280;59889;50.700;5.440;2023-12-29T04:12:36;99463.41;;;20.34;35.28
72024;BME280;59889;50.700;5.440;2023-12-29T04:15:01;99459.14;;;20.09;35.29
72024;BME280;59889;50.700;5.440;2023-12-29T04:17:26;99460.57;;;20.00;35.41
72024;BME280;59889;50.700;5.440;2023-12-29T04:19:52;99455.01;;;20.55;35.31
72024;BME280;59889;50.700;5.440;2023-12-29T04:22:17;99457.04;;;20.10;35.30
72024;BME280;59889;50.700;5.440;2023-12-29T04:24:41;99448.48;;;20.07;35.32
72024;BME280;59889;50.700;5.440;2023-12-29T04:27:07;99453.85;;;20.22;35.13
72024;BME280;59889;50.700;5.440;2023-12-29T04:29:32;99464.04;;;20.47;35.41
72024;BME280;59889;50.700;5.440;2023-12-29T04:31:57;99462.50;;;20.21;35.44
72024;BME280;59889;50.700;5.440;2023-12-29T04:34:22;99467.32;;;20.33;35.29
72024;BME280;59889;50.700;5.440;2023-12-29T04:36:47;99470.51;;;20.62;35.22
72024;BME280;59889;50.700;5.440;2023-12-29T04:39:12;99479.72;;;20.31;35.32
72024;BME280;59889;50.700;5.440;2023-12-29T04:41:38;99483.53;;;20.07;35.34
72024;BME280;59889;50.700;5.440;2023-12-29T04:44:02;99488.36;;;20.05;35.36
72024;BME280;59889;50.700;5.440;2023-12-29T04:46:27;99484.66;;;20.57;35.29
72024;BME280;59889;50.700;5.440;2023-12-29T04:48:52;99478.48;;;20.40;35.22
72024;BME280;59889;50.700;5.440;2023-12-29T04:51:17;99480.49;;;20.51;35.37
72024;BME280;59889;50.700;5.440;2023-12-29T04:53:42;99477.44;;;20.23;35.44
72024;BME280;59889;50.700;5.440;2023-12-29T04:56:07;99476.98;;;20.31;35.34
72024;BME280;59889;50.700;5.440;2023-12-29T04:58:33;99485.12;;;20.55;35.33
72024;BME280;59889;50.700;5.440;2023-12-29T05:00:57;99485.88;;;20.43;35.19
72024;BME280;59889;50.700;5.440;2023-12-29T05:03:22;99489.27;;;20.54;35.34
72024;BME280;59889;50.700;5.440;2023-12-29T05:05:48;99491.76;;;20.03;35.36
72024;BME280;59889;50.700;5.440;2023-12-29T05:08:13;99496.82;;;20.32;35.31
72024;BME280;59889;50.700;5.440;2023-12-29T05:10:38;99492.19;;;20.01;35.41
72024;BME280;59889;50.700;5.440;2023-12-29T05:13:03;99491.09;;;20.39;35.22
72024;BME280;59889;50.700;5.440;2023-12-29T05:15:28;99489.77;;;20.34;35.31
72024;BME280;59889;50.700;5.440;2023-12-29T05:17:53;99482.59;;;20.33;35.32
72024;BME280;59889;50.700;5.440;2023-12-29T05:20:18;99478.22;;;20.34;35.29
72024;BME280;59889;50.700;5.440;2023-12-29T05:22:43;99483.52;;;20.29;35.37
72024;BME280;59889;50.700;5.440;2023-12-29T05:25:08;99480.99;;;20.07;35.35
72024;BME280;59889;50.700;5.440;2023-12-29T05:27:33;99479.89;;;20.13;35.26
72024;BME280;59889;50.700;5.440;2023-12-29T05:29:59;99486.73;;;20.30;35.35
72024;BME280;59889;50.700;5.440;2023-12-29T05:32:24;99480.25;;;20.36;35.29
72024;BME280;59889;50.700;5.440;2023-12-29T05:34:48;99480.22;;;20.37;35.28
72024;BME280;59889;50.700;5.440;2023-12-29T05:37:13;99483.46;;;20.30;35.38
72024;BME280;59889;50.700;5.440;2023-12-29T05:39:41;99484.67;;;20.14;35.26
72024;BME280;59889;50.700;5.440;2023-12-29T05:42:04;99478.78;;;20.15;35.26
72024;BME280;59889;50.700;5.440;2023-12-29T05:44:29;99472.28;;;20.62;35.27
72024;BME280;59889;50.700;5.440;2023-12-29T05:46:54;99466.73;;;20.49;35.13
72024;BME280;59889;50.700;5.440;2023-12-29T05:49:19;99465.21;;;20.16;35.23
72024;BME280;59889;50.700;5.440;2023-12-29T05:51:44;99463.41;;;20.48;35.14
72024;BME280;59889;50.700;5.440;2023-12-29T05:54:09;99467.18;;;20.47;35.15
72024;BME280;59889;50.700;5.440;2023-12-29T05:56:34;99466.62;;;20.33;35.30
72024;BME280;59889;50.700;5.440;2023-12-29T05:58:59;99465.27;;;20.52;35.09
72024;BME280;59889;50.700;5.440;2023-12-29T06:01:24;99467.32;;;20.24;35.12
72024;BME280;59889;50.700;5.440;2023-12-29T06:03:49;99469.90;;;20.54;35.06
72024;BME280;59889;50.700;5.440;2023-12-29T06:06:14;99463.77;;;20.31;35.05
72024;BME280;59889;50.700;5.440;2023-12-29T06:08:39;99467.25;;;20.47;35.14
72024;BME280;59889;50.700;5.440;2023-12-29T06:11:04;99471.95;;;20.35;34.99
72024;BME280;59889;50.700;5.440;2023-12-29T06:13:29;99464.44;;;20.32;35.03
72024;BME280;59889;50.700;5.440;2023-12-29T06:15:54;99461.73;;;20.42;34.89
72024;BME280;59889;50.700;5.440;2023-12-29T06:18:19;99463.85;;;20.33;35.02
72024;BME280;59889;50.700;5.440;2023-12-29T06:20:44;99454.47;;;20.64;34.91
72024;BME280;59889;50.700;5.440;2023-12-29T06:23:09;99449.25;;;20.50;35.09
72024;BME280;59889;50.700;5.440;2023-12-29T06:25:34;99449.12;;;20.48;35.13
72024;BME280;59889;50.700;5.440;2023-12-29T06:27:59;99449.38;;;20.38;34.96
72024;BME280;59889;50.700;5.440;2023-12-29T06:30:25;99454.08;;;20.75;35.09
72024;BME280;59889;50.700;5.440;2023-12-29T06:32:50;99446.53;;;20.55;35.10
72024;BME280;59889;50.700;5.440;2023-12-29T06:35:15;99445.72;;;20.11;35.52
72024;BME280;59889;50.700;5.440;2023-12-29T06:37:40;99445.82;;;20.35;35.36
72024;BME280;59889;50.700;5.440;2023-12-29T06:40:07;99442.20;;;20.05;35.23
72024;BME280;59889;50.700;5.440;2023-12-29T06:42:32;99437.79;;;20.50;35.12
72024;BME280;59889;50.700;5.440;2023-12-29T06:44:55;99444.98;;;20.42;35.02
72024;BME280;59889;50.700;5.440;2023-12-29T06:47:20;99442.41;;;20.16;34.90
72024;BME280;59889;50.700;5.440;2023-12-29T06:49:53;99442.25;;;20.28;34.93
72024;BME280;59889;50.700;5.440;2023-12-29T06:52:10;99455.48;;;20.34;34.83
72024;BME280;59889;50.700;5.440;2023-12-29T06:54:35;99446.73;;;20.16;34.66
72024;BME280;59889;50.700;5.440;2023-12-29T06:57:00;99439.21;;;20.23;34.74
72024;BME280;59889;50.700;5.440;2023-12-29T06:59:25;99428.36;;;20.32;34.61
72024;BME280;59889;50.700;5.440;2023-12-29T07:01:51;99428.39;;;20.18;34.80
72024;BME280;59889;50.700;5.440;2023-12-29T07:04:16;99427.77;;;20.19;35.14
72024;BME280;59889;50.700;5.440;2023-12-29T07:06:41;99425.06;;;20.14;35.41
72024;BME280;59889;50.700;5.440;2023-12-29T07:09:06;99416.59;;;20.34;35.34
72024;BME280;59889;50.700;5.440;2023-12-29T07:11:31;99415.82;;;20.03;35.89
72024;BME280;59889;50.700;5.440;2023-12-29T07:13:56;99414.16;;;19.97;35.79
72024;BME280;59889;50.700;5.440;2023-12-29T07:16:22;99419.27;;;20.06;36.08
72024;BME280;59889;50.700;5.440;2023-12-29T07:18:48;99435.11;;;20.22;35.94
72024;BME280;59889;50.700;5.440;2023-12-29T07:21:14;99433.37;;;20.15;36.05
72024;BME280;59889;50.700;5.440;2023-12-29T07:23:38;99438.68;;;20.14;36.07
72024;BME280;59889;50.700;5.440;2023-12-29T07:26:03;99434.93;;;19.73;36.02
72024;BME280;59889;50.700;5.440;2023-12-29T07:28:28;99431.31;;;20.12;36.12
72024;BME280;59889;50.700;5.440;2023-12-29T07:30:54;99428.02;;;20.29;35.91
72024;BME280;59889;50.700;5.440;2023-12-29T07:33:19;99428.77;;;19.67;36.23
72024;BME280;59889;50.700;5.440;2023-12-29T07:35:44;99436.32;;;20.26;36.19
72024;BME280;59889;50.700;5.440;2023-12-29T07:38:09;99430.80;;;20.04;36.13
72024;BME280;59889;50.700;5.440;2023-12-29T07:40:34;99428.07;;;20.12;36.36
72024;BME280;59889;50.700;5.440;2023-12-29T07:43:00;99435.30;;;20.25;36.28
72024;BME280;59889;50.700;5.440;2023-12-29T07:45:25;99432.15;;;19.86;36.18
72024;BME280;59889;50.700;5.440;2023-12-29T07:47:50;99435.79;;;20.21;36.33
72024;BME280;59889;50.700;5.440;2023-12-29T07:50:15;99438.24;;;20.03;36.30
72024;BME280;59889;50.700;5.440;2023-12-29T07:52:42;99438.57;;;20.21;36.34
72024;BME280;59889;50.700;5.440;2023-12-29T07:55:06;99428.43;;;20.37;36.16
72024;BME280;59889;50.700;5.440;2023-12-29T07:57:30;99431.13;;;20.05;36.28
72024;BME280;59889;50.700;5.440;2023-12-29T07:59:56;99425.10;;;20.36;36.16
72024;BME280;59889;50.700;5.440;2023-12-29T08:02:21;99430.08;;;19.86;36.44
72024;BME280;59889;50.700;5.440;2023-12-29T08:04:46;99428.50;;;20.36;36.16
72024;BME280;59889;50.700;5.440;2023-12-29T08:07:11;99437.89;;;20.24;36.32
72024;BME280;59889;50.700;5.440;2023-12-29T08:09:36;99436.37;;;19.95;36.38
72024;BME280;59889;50.700;5.440;2023-12-29T08:12:01;99440.30;;;19.69;36.36
72024;BME280;59889;50.700;5.440;2023-12-29T08:14:26;99444.09;;;20.22;36.34
72024;BME280;59889;50.700;5.440;2023-12-29T08:16:51;99446.21;;;20.14;36.44
72024;BME280;59889;50.700;5.440;2023-12-29T08:19:17;99453.62;;;20.17;36.39
72024;BME280;59889;50.700;5.440;2023-12-29T08:21:42;99458.94;;;19.96;36.37
72024;BME280;59889;50.700;5.440;2023-12-29T08:24:07;99452.83;;;20.05;36.21
72024;BME280;59889;50.700;5.440;2023-12-29T08:26:32;99456.16;;;20.07;36.20
72024;BME280;59889;50.700;5.440;2023-12-29T08:28:57;99456.94;;;20.35;36.17
72024;BME280;59889;50.700;5.440;2023-12-29T08:31:22;99452.94;;;20.32;36.21
72024;BME280;59889;50.700;5.440;2023-12-29T08:33:48;99449.65;;;20.24;36.36
72024;BME280;59889;50.700;5.440;2023-12-29T08:36:12;99450.55;;;19.89;36.54
72024;BME280;59889;50.700;5.440;2023-12-29T08:38:37;99444.54;;;20.12;36.51
72024;BME280;59889;50.700;5.440;2023-12-29T08:41:02;99447.62;;;20.17;36.43
72024;BME280;59889;50.700;5.440;2023-12-29T08:43:27;99451.63;;;20.18;36.36
72024;BME280;59889;50.700;5.440;2023-12-29T08:45:53;99454.34;;;20.17;36.44
72024;BME280;59889;50.700;5.440;2023-12-29T08:48:18;99457.54;;;20.19;36.39
72024;BME280;59889;50.700;5.440;2023-12-29T08:50:43;99450.21;;;19.96;36.39
72024;BME280;59889;50.700;5.440;2023-12-29T08:53:08;99444.11;;;20.14;36.46
72024;BME280;59889;50.700;5.440;2023-12-29T08:55:33;99443.78;;;19.80;36.32
72024;BME280;59889;50.700;5.440;2023-12-29T08:57:58;99441.38;;;20.28;36.31
72024;BME280;59889;50.700;5.440;2023-12-29T09:00:23;99440.91;;;20.15;36.46
72024;BME280;59889;50.700;5.440;2023-12-29T09:02:48;99443.29;;;20.06;36.64
72024;BME280;59889;50.700;5.440;2023-12-29T09:05:14;99445.53;;;19.74;36.77
72024;BME280;59889;50.700;5.440;2023-12-29T09:07:39;99451.26;;;19.88;36.92
72024;BME280;59889;50.700;5.440;2023-12-29T09:10:05;99454.73;;;20.15;36.61
72024;BME280;59889;50.700;5.440;2023-12-29T09:12:29;99454.93;;;20.29;36.43
72024;BME280;59889;50.700;5.440;2023-12-29T09:14:54;99459.52;;;20.15;36.57
72024;BME280;59889;50.700;5.440;2023-12-29T09:17:19;99456.67;;;20.23;36.56
72024;BME280;59889;50.700;5.440;2023-12-29T09:19:44;99464.65;;;20.03;36.65
72024;BME280;59889;50.700;5.440;2023-12-29T09:22:10;99460.27;;;20.15;36.96
72024;BME280;59889;50.700;5.440;2023-12-29T09:24:34;99466.69;;;20.27;36.98
72024;BME280;59889;50.700;5.440;2023-12-29T09:27:00;99466.50;;;20.00;37.03
72024;BME280;59889;50.700;5.440;2023-12-29T09:29:25;99469.66;;;20.27;37.07
72024;BME280;59889;50.700;5.440;2023-12-29T09:31:50;99472.57;;;20.24;37.28
72024;BME280;59889;50.700;5.440;2023-12-29T09:34:16;99473.68;;;20.35;37.15
72024;BME280;59889;50.700;5.440;2023-12-29T09:36:40;99478.90;;;20.58;37.23
72024;BME280;59889;50.700;5.440;2023-12-29T09:39:07;99477.36;;;20.08;37.36
72024;BME280;59889;50.700;5.440;2023-12-29T09:41:31;99491.35;;;20.36;37.36
72024;BME280;59889;50.700;5.440;2023-12-29T09:43:58;99496.51;;;19.99;37.59
72024;BME280;59889;50.700;5.440;2023-12-29T09:46:22;99491.24;;;20.26;37.61
72024;BME280;59889;50.700;5.440;2023-12-29T09:48:47;99490.51;;;20.30;37.83
72024;BME280;59889;50.700;5.440;2023-12-29T09:51:14;99496.50;;;20.25;37.85
72024;BME280;59889;50.700;5.440;2023-12-29T09:53:37;99490.83;;;20.32;37.70
72024;BME280;59889;50.700;5.440;2023-12-29T09:56:03;99488.38;;;19.95;37.97
72024;BME280;59889;50.700;5.440;2023-12-29T09:58:27;99480.90;;;19.98;37.95
72024;BME280;59889;50.700;5.440;2023-12-29T10:00:53;99480.79;;;20.00;37.87
72024;BME280;59889;50.700;5.440;2023-12-29T10:03:19;99486.19;;;19.98;37.92
72024;BME280;59889;50.700;5.440;2023-12-29T10:05:44;99491.20;;;20.20;37.78
72024;BME280;59889;50.700;5.440;2023-12-29T10:08:09;99490.37;;;19.84;37.63
72024;BME280;59889;50.700;5.440;2023-12-29T10:10:33;99484.48;;;20.21;37.87
72024;BME280;59889;50.700;5.440;2023-12-29T10:13:00;99487.76;;;20.31;37.84
72024;BME280;59889;50.700;5.440;2023-12-29T10:15:28;99491.32;;;20.29;37.89
72024;BME280;59889;50.700;5.440;2023-12-29T10:17:52;99489.41;;;20.23;37.89
72024;BME280;59889;50.700;5.440;2023-12-29T10:20:24;99489.23;;;20.35;37.57
72024;BME280;59889;50.700;5.440;2023-12-29T10:22:46;99485.58;;;20.22;37.66
72024;BME280;59889;50.700;5.440;2023-12-29T10:25:04;99484.61;;;19.86;37.51
72024;BME280;59889;50.700;5.440;2023-12-29T10:27:29;99480.22;;;20.32;37.58
72024;BME280;59889;50.700;5.440;2023-12-29T10:29:54;99485.87;;;20.12;37.53
72024;BME280;59889;50.700;5.440;2023-12-29T10:32:19;99481.86;;;19.88;37.56
72024;BME280;59889;50.700;5.440;2023-12-29T10:34:44;99483.70;;;20.28;37.61
72024;BME280;59889;50.700;5.440;2023-12-29T10:37:09;99486.51;;;20.15;37.56
72024;BME280;59889;50.700;5.440;2023-12-29T10:39:35;99488.45;;;19.89;37.52
72024;BME280;59889;50.700;5.440;2023-12-29T10:42:03;99484.56;;;20.20;37.84
72024;BME280;59889;50.700;5.440;2023-12-29T10:44:25;99484.18;;;20.13;37.51
72024;BME280;59889;50.700;5.440;2023-12-29T10:46:50;99481.72;;;20.28;37.65
72024;BME280;59889;50.700;5.440;2023-12-29T10:49:17;99484.83;;;20.40;37.55
72024;BME280;59889;50.700;5.440;2023-12-29T10:51:40;99484.83;;;20.42;37.54
72024;BME280;59889;50.700;5.440;2023-12-29T10:54:05;99480.26;;;20.23;37.78
72024;BME280;59889;50.700;5.440;2023-12-29T10:56:30;99483.54;;;20.32;37.74
72024;BME280;59889;50.700;5.440;2023-12-29T10:58:57;99485.01;;;20.31;37.78
72024;BME280;59889;50.700;5.440;2023-12-29T11:01:20;99476.48;;;20.22;37.85
72024;BME280;59889;50.700;5.440;2023-12-29T11:03:59;99482.09;;;20.14;37.70
72024;BME280;59889;50.700;5.440;2023-12-29T11:06:10;99465.41;;;19.65;37.99
72024;BME280;59889;50.700;5.440;2023-12-29T11:08:35;99465.37;;;20.28;37.80
72024;BME280;59889;50.700;5.440;2023-12-29T11:11:00;99469.07;;;20.35;37.72
72024;BME280;59889;50.700;5.440;2023-12-29T11:13:26;99466.18;;;20.21;37.94
72024;BME280;59889;50.700;5.440;2023-12-29T11:15:52;99466.05;;;20.02;37.88
72024;BME280;59889;50.700;5.440;2023-12-29T11:18:17;99458.72;;;19.92;38.00
72024;BME280;59889;50.700;5.440;2023-12-29T11:20:41;99465.96;;;19.99;37.88
72024;BME280;59889;50.700;5.440;2023-12-29T11:23:06;99462.62;;;20.37;37.70
72024;BME280;59889;50.700;5.440;2023-12-29T11:25:31;99461.68;;;20.25;37.81
72024;BME280;59889;50.700;5.440;2023-12-29T11:27:56;99465.92;;;19.88;37.64
72024;BME280;59889;50.700;5.440;2023-12-29T11:30:21;99466.60;;;20.39;37.59
72024;BME280;59889;50.700;5.440;2023-12-29T11:32:51;99472.27;;;20.33;37.64
72024;BME280;59889;50.700;5.440;2023-12-29T11:35:13;99469.94;;;20.25;37.77
72024;BME280;59889;50.700;5.440;2023-12-29T11:37:56;99465.12;;;19.95;38.29
72024;BME280;59889;50.700;5.440;2023-12-29T11:40:11;99472.14;;;19.45;38.40
72024;BME280;59889;50.700;5.440;2023-12-29T11:42:30;99467.58;;;19.96;37.98
72024;BME280;59889;50.700;5.440;2023-12-29T11:44:51;99464.08;;;20.39;37.63
72024;BME280;59889;50.700;5.440;2023-12-29T11:47:35;99458.62;;;20.11;37.89
72024;BME280;59889;50.700;5.440;2023-12-29T11:52:07;99464.29;;;20.20;37.67
72024;BME280;59889;50.700;5.440;2023-12-29T11:54:32;99454.87;;;20.17;37.59
72024;BME280;59889;50.700;5.440;2023-12-29T11:56:57;99457.35;;;20.27;37.46
72024;BME280;59889;50.700;5.440;2023-12-29T11:59:23;99464.01;;;20.29;37.74
72024;BME280;59889;50.700;5.440;2023-12-29T12:01:48;99461.00;;;20.13;37.62
72024;BME280;59889;50.700;5.440;2023-12-29T12:04:34;99455.53;;;20.31;37.68
72024;BME280;59889;50.700;5.440;2023-12-29T12:06:37;99456.62;;;20.06;37.67
72024;BME280;59889;50.700;5.440;2023-12-29T12:09:16;99461.59;;;19.90;37.58
72024;BME280;59889;50.700;5.440;2023-12-29T12:11:41;99461.91;;;19.90;37.58
72024;BME280;59889;50.700;5.440;2023-12-29T12:13:54;99461.61;;;20.32;37.58
72024;BME280;59889;50.700;5.440;2023-12-29T12:18:43;99460.13;;;20.10;37.60
72024;BME280;59889;50.700;5.440;2023-12-29T12:21:08;99456.72;;;20.30;37.73
72024;BME280;59889;50.700;5.440;2023-12-29T12:23:33;99448.01;;;20.20;37.51
72024;BME280;59889;50.700;5.440;2023-12-29T12:26:00;99446.12;;;20.29;37.58
72024;BME280;59889;50.700;5.440;2023-12-29T12:28:24;99439.61;;;20.47;37.27
72024;BME280;59889;50.700;5.440;2023-12-29T12:30:48;99441.80;;;20.29;37.13
72024;BME280;59889;50.700;5.440;2023-12-29T12:33:14;99437.02;;;19.98;37.17
72024;BME280;59889;50.700;5.440;2023-12-29T12:35:39;99436.08;;;20.00;37.13
72024;BME280;59889;50.700;5.440;2023-12-29T12:38:08;99434.86;;;20.07;36.99
72024;BME280;59889;50.700;5.440;2023-12-29T12:40:28;99433.24;;;20.57;36.93
72024;BME280;59889;50.700;5.440;2023-12-29T12:42:54;99432.28;;;20.40;36.76
72024;BME280;59889;50.700;5.440;2023-12-29T12:45:20;99430.44;;;20.18;36.76
72024;BME280;59889;50.700;5.440;2023-12-29T12:47:45;99431.34;;;20.33;36.82
72024;BME280;59889;50.700;5.440;2023-12-29T12:50:09;99435.65;;;20.38;36.72
72024;BME280;59889;50.700;5.440;2023-12-29T12:52:35;99434.18;;;20.31;36.81